Aviation Digital Data Service (ADDS)

Output produced by METARs form (0203 UTC 05 June 2020)
found at http://www.aviationweather.gov/metar/data/
 
METAR text: EDDR 050150Z 28004KT 9999 BKN017 BKN043 10/08 Q0999
Conditions at: EDDR (SAARBRUECKEN , DE) observed 0150 UTC 05 June 2020
Temperature: 10.0°C (50°F)
Dewpoint: 8.0°C (46°F) [RH = 87%]
Pressure (altimeter): 29.50 inches Hg (999.0 mb)
Winds: from the W (280 degrees) at 5 MPH (4 knots; 2.1 m/s)
Visibility: 6 or more miles (10+ km)
Ceiling: 1700 feet AGL
Clouds: broken clouds at 1700 feet AGL
broken clouds at 4300 feet AGL
Weather: no significant weather observed at this time

METAR text: EDDR 050120Z 27007KT 9999 BKN015 10/08 Q1000
Conditions at: EDDR (SAARBRUECKEN , DE) observed 0120 UTC 05 June 2020
Temperature: 10.0°C (50°F)
Dewpoint: 8.0°C (46°F) [RH = 87%]
Pressure (altimeter): 29.53 inches Hg (1000.0 mb)
Winds: from the W (270 degrees) at 8 MPH (7 knots; 3.6 m/s)
Visibility: 6 or more miles (10+ km)
Ceiling: 1500 feet AGL
Clouds: broken clouds at 1500 feet AGL
Weather: no significant weather observed at this time

METAR text: EDDR 050050Z 26007KT 9999 -RA SCT014 10/08 Q1000
Conditions at: EDDR (SAARBRUECKEN , DE) observed 0050 UTC 05 June 2020
Temperature: 10.0°C (50°F)
Dewpoint: 8.0°C (46°F) [RH = 87%]
Pressure (altimeter): 29.53 inches Hg (1000.0 mb)
Winds: from the W (260 degrees) at 8 MPH (7 knots; 3.6 m/s)
Visibility: 6 or more miles (10+ km)
Ceiling: at least 12,000 feet AGL
Clouds: scattered clouds at 1400 feet AGL
Weather: -RA  (light rain)

METAR text: EDDR 050020Z 26006KT 9999 FEW013 BKN016 10/09 Q1000
Conditions at: EDDR (SAARBRUECKEN , DE) observed 0020 UTC 05 June 2020
Temperature: 10.0°C (50°F)
Dewpoint: 9.0°C (48°F) [RH = 93%]
Pressure (altimeter): 29.53 inches Hg (1000.0 mb)
Winds: from the W (260 degrees) at 7 MPH (6 knots; 3.1 m/s)
Visibility: 6 or more miles (10+ km)
Ceiling: 1600 feet AGL
Clouds: few clouds at 1300 feet AGL
broken clouds at 1600 feet AGL
Weather: no significant weather observed at this time

METAR text: EDDR 042350Z 26005KT 9999 FEW013 10/09 Q1000
Conditions at: EDDR (SAARBRUECKEN , DE) observed 2350 UTC 04 June 2020
Temperature: 10.0°C (50°F)
Dewpoint: 9.0°C (48°F) [RH = 93%]
Pressure (altimeter): 29.53 inches Hg (1000.0 mb)
Winds: from the W (260 degrees) at 6 MPH (5 knots; 2.6 m/s)
Visibility: 6 or more miles (10+ km)
Ceiling: at least 12,000 feet AGL
Clouds: few clouds at 1300 feet AGL
Weather: no significant weather observed at this time

METAR text: EDDR 042320Z 28005KT 9999 FEW013 10/09 Q1000
Conditions at: EDDR (SAARBRUECKEN , DE) observed 2320 UTC 04 June 2020
Temperature: 10.0°C (50°F)
Dewpoint: 9.0°C (48°F) [RH = 93%]
Pressure (altimeter): 29.53 inches Hg (1000.0 mb)
Winds: from the W (280 degrees) at 6 MPH (5 knots; 2.6 m/s)
Visibility: 6 or more miles (10+ km)
Ceiling: at least 12,000 feet AGL
Clouds: few clouds at 1300 feet AGL
Weather: no significant weather observed at this time

METAR text: EDDR 042250Z 28005KT 9999 FEW020 11/09 Q0999
Conditions at: EDDR (SAARBRUECKEN , DE) observed 2250 UTC 04 June 2020
Temperature: 11.0°C (52°F)
Dewpoint: 9.0°C (48°F) [RH = 87%]
Pressure (altimeter): 29.50 inches Hg (999.0 mb)
Winds: from the W (280 degrees) at 6 MPH (5 knots; 2.6 m/s)
Visibility: 6 or more miles (10+ km)
Ceiling: at least 12,000 feet AGL
Clouds: few clouds at 2000 feet AGL
Weather: no significant weather observed at this time

METAR text: EDDR 042220Z 28006KT 9999 FEW047 11/10 Q0999
Conditions at: EDDR (SAARBRUECKEN , DE) observed 2220 UTC 04 June 2020
Temperature: 11.0°C (52°F)
Dewpoint: 10.0°C (50°F) [RH = 94%]
Pressure (altimeter): 29.50 inches Hg (999.0 mb)
Winds: from the W (280 degrees) at 7 MPH (6 knots; 3.1 m/s)
Visibility: 6 or more miles (10+ km)
Ceiling: at least 12,000 feet AGL
Clouds: few clouds at 4700 feet AGL
Weather: no significant weather observed at this time

METAR text: EDDR 042150Z 28005KT 9999 FEW020 SCT035 11/10 Q0999
Conditions at: EDDR (SAARBRUECKEN , DE) observed 2150 UTC 04 June 2020
Temperature: 11.0°C (52°F)
Dewpoint: 10.0°C (50°F) [RH = 94%]
Pressure (altimeter): 29.50 inches Hg (999.0 mb)
Winds: from the W (280 degrees) at 6 MPH (5 knots; 2.6 m/s)
Visibility: 6 or more miles (10+ km)
Ceiling: at least 12,000 feet AGL
Clouds: few clouds at 2000 feet AGL
scattered clouds at 3500 feet AGL
Weather: no significant weather observed at this time

METAR text: EDDR 042120Z 29006KT 9999 FEW020 BKN035 11/10 Q0999
Conditions at: EDDR (SAARBRUECKEN , DE) observed 2120 UTC 04 June 2020
Temperature: 11.0°C (52°F)
Dewpoint: 10.0°C (50°F) [RH = 94%]
Pressure (altimeter): 29.50 inches Hg (999.0 mb)
Winds: from the WNW (290 degrees) at 7 MPH (6 knots; 3.1 m/s)
Visibility: 6 or more miles (10+ km)
Ceiling: 3500 feet AGL
Clouds: few clouds at 2000 feet AGL
broken clouds at 3500 feet AGL
Weather: no significant weather observed at this time

METAR text: EDDR 042050Z 29005KT 250V310 9999 BKN020 11/10 Q0999 NOSIG
Conditions at: EDDR (SAARBRUECKEN , DE) observed 2050 UTC 04 June 2020
Temperature: 11.0°C (52°F)
Dewpoint: 10.0°C (50°F) [RH = 94%]
Pressure (altimeter): 29.50 inches Hg (999.0 mb)
Winds: from the WNW (290 degrees) at 6 MPH (5 knots; 2.6 m/s)
Visibility: 6 or more miles (10+ km)
Ceiling: 2000 feet AGL
Clouds: broken clouds at 2000 feet AGL
Weather: no significant weather observed at this time

METAR text: EDDR 042020Z 30007KT 9999 FEW011 11/10 Q0999 NOSIG
Conditions at: EDDR (SAARBRUECKEN , DE) observed 2020 UTC 04 June 2020
Temperature: 11.0°C (52°F)
Dewpoint: 10.0°C (50°F) [RH = 94%]
Pressure (altimeter): 29.50 inches Hg (999.0 mb)
Winds: from the WNW (300 degrees) at 8 MPH (7 knots; 3.6 m/s)
Visibility: 6 or more miles (10+ km)
Ceiling: at least 12,000 feet AGL
Clouds: few clouds at 1100 feet AGL
Weather: no significant weather observed at this time

METAR text: EDDR 041950Z 29007KT 9999 FEW011 11/09 Q0998 NOSIG
Conditions at: EDDR (SAARBRUECKEN , DE) observed 1950 UTC 04 June 2020
Temperature: 11.0°C (52°F)
Dewpoint: 9.0°C (48°F) [RH = 87%]
Pressure (altimeter): 29.47 inches Hg (998.0 mb)
Winds: from the WNW (290 degrees) at 8 MPH (7 knots; 3.6 m/s)
Visibility: 6 or more miles (10+ km)
Ceiling: at least 12,000 feet AGL
Clouds: few clouds at 1100 feet AGL
Weather: no significant weather observed at this time

METAR text: EDDR 041920Z 29007KT 9999 FEW011 12/10 Q0998 NOSIG
Conditions at: EDDR (SAARBRUECKEN , DE) observed 1920 UTC 04 June 2020
Temperature: 12.0°C (54°F)
Dewpoint: 10.0°C (50°F) [RH = 88%]
Pressure (altimeter): 29.47 inches Hg (998.0 mb)
Winds: from the WNW (290 degrees) at 8 MPH (7 knots; 3.6 m/s)
Visibility: 6 or more miles (10+ km)
Ceiling: at least 12,000 feet AGL
Clouds: few clouds at 1100 feet AGL
Weather: no significant weather observed at this time

METAR text: EDDR 041850Z 30008KT 9999 FEW011 12/10 Q0997 NOSIG
Conditions at: EDDR (SAARBRUECKEN , DE) observed 1850 UTC 04 June 2020
Temperature: 12.0°C (54°F)
Dewpoint: 10.0°C (50°F) [RH = 88%]
Pressure (altimeter): 29.44 inches Hg (997.0 mb)
Winds: from the WNW (300 degrees) at 9 MPH (8 knots; 4.1 m/s)
Visibility: 6 or more miles (10+ km)
Ceiling: at least 12,000 feet AGL
Clouds: few clouds at 1100 feet AGL
Weather: no significant weather observed at this time

METAR text: EDDR 041820Z 29010KT 9999 -SHRA SCT006 SCT016TCU 13/11 Q0997 NOSIG
Conditions at: EDDR (SAARBRUECKEN , DE) observed 1820 UTC 04 June 2020
Temperature: 13.0°C (55°F)
Dewpoint: 11.0°C (52°F) [RH = 88%]
Pressure (altimeter): 29.44 inches Hg (997.0 mb)
Winds: from the WNW (290 degrees) at 12 MPH (10 knots; 5.1 m/s)
Visibility: 6 or more miles (10+ km)
Ceiling: at least 12,000 feet AGL
Clouds: scattered clouds at 600 feet AGL
scattered clouds at 1600 feet AGL
Weather: -SHRA  (light rain showers)

METAR text: EDDR 041750Z 27006KT 8000 VCSH FEW007 SCT018TCU BKN040 13/12 Q0997 NOSIG
Conditions at: EDDR (SAARBRUECKEN , DE) observed 1750 UTC 04 June 2020
Temperature: 13.0°C (55°F)
Dewpoint: 12.0°C (54°F) [RH = 94%]
Pressure (altimeter): 29.44 inches Hg (997.0 mb)
Winds: from the W (270 degrees) at 7 MPH (6 knots; 3.1 m/s)
Visibility: 5 miles ( 8 km)
Ceiling: 4000 feet AGL
Clouds: few clouds at 700 feet AGL
scattered clouds at 1800 feet AGL
broken clouds at 4000 feet AGL
Weather: VCSH  (showers in vicinity)

METAR text: EDDR 041720Z 29007KT 9999 SCT012TCU SCT025CB 13/12 Q0997 RESHRA NOSIG
Conditions at: EDDR (SAARBRUECKEN , DE) observed 1720 UTC 04 June 2020
Temperature: 13.0°C (55°F)
Dewpoint: 12.0°C (54°F) [RH = 94%]
Pressure (altimeter): 29.44 inches Hg (997.0 mb)
Winds: from the WNW (290 degrees) at 8 MPH (7 knots; 3.6 m/s)
Visibility: 6 or more miles (10+ km)
Ceiling: at least 12,000 feet AGL
Clouds: scattered clouds at 1200 feet AGL
scattered clouds at 2500 feet AGL
Weather: no significant weather observed at this time

METAR text: EDDR 041650Z 26007KT 220V310 9999 -SHRA BKN015TCU SCT030CB 15/12 Q0996 TEMPO -TSRA
Conditions at: EDDR (SAARBRUECKEN , DE) observed 1650 UTC 04 June 2020
Temperature: 15.0°C (59°F)
Dewpoint: 12.0°C (54°F) [RH = 82%]
Pressure (altimeter): 29.41 inches Hg (996.0 mb)
Winds: from the W (260 degrees) at 8 MPH (7 knots; 3.6 m/s)
Visibility: 6 or more miles (10+ km)
Ceiling: 1500 feet AGL
Clouds: broken clouds at 1500 feet AGL
scattered clouds at 3000 feet AGL
Weather: -SHRA  (light rain showers)

METAR text: EDDR 041620Z 24006KT 9999 VCSH BKN015TCU FEW030CB 15/13 Q0996 TEMPO -TSRA SCT030CB
Conditions at: EDDR (SAARBRUECKEN , DE) observed 1620 UTC 04 June 2020
Temperature: 15.0°C (59°F)
Dewpoint: 13.0°C (55°F) [RH = 88%]
Pressure (altimeter): 29.41 inches Hg (996.0 mb)
Winds: from the WSW (240 degrees) at 7 MPH (6 knots; 3.1 m/s)
Visibility: 6 or more miles (10+ km)
Ceiling: 1500 feet AGL
Clouds: broken clouds at 1500 feet AGL
few clouds at 3000 feet AGL
Weather: VCSH  (showers in vicinity)

METAR text: EDDR 041550Z 27007KT 220V310 9999 SCT015 16/12 Q0996 NOSIG
Conditions at: EDDR (SAARBRUECKEN , DE) observed 1550 UTC 04 June 2020
Temperature: 16.0°C (61°F)
Dewpoint: 12.0°C (54°F) [RH = 77%]
Pressure (altimeter): 29.41 inches Hg (996.0 mb)
Winds: from the W (270 degrees) at 8 MPH (7 knots; 3.6 m/s)
Visibility: 6 or more miles (10+ km)
Ceiling: at least 12,000 feet AGL
Clouds: scattered clouds at 1500 feet AGL
Weather: no significant weather observed at this time

METAR text: EDDR 041520Z 27006KT 9999 SCT015 16/13 Q0996 NOSIG
Conditions at: EDDR (SAARBRUECKEN , DE) observed 1520 UTC 04 June 2020
Temperature: 16.0°C (61°F)
Dewpoint: 13.0°C (55°F) [RH = 82%]
Pressure (altimeter): 29.41 inches Hg (996.0 mb)
Winds: from the W (270 degrees) at 7 MPH (6 knots; 3.1 m/s)
Visibility: 6 or more miles (10+ km)
Ceiling: at least 12,000 feet AGL
Clouds: scattered clouds at 1500 feet AGL
Weather: no significant weather observed at this time

METAR text: EDDR 041450Z 26007KT 9999 FEW008 SCT015 15/12 Q0997 NOSIG
Conditions at: EDDR (SAARBRUECKEN , DE) observed 1450 UTC 04 June 2020
Temperature: 15.0°C (59°F)
Dewpoint: 12.0°C (54°F) [RH = 82%]
Pressure (altimeter): 29.44 inches Hg (997.0 mb)
Winds: from the W (260 degrees) at 8 MPH (7 knots; 3.6 m/s)
Visibility: 6 or more miles (10+ km)
Ceiling: at least 12,000 feet AGL
Clouds: few clouds at 800 feet AGL
scattered clouds at 1500 feet AGL
Weather: no significant weather observed at this time

METAR text: EDDR 041420Z 29005KT 210V010 9999 FEW008 SCT015 15/13 Q0996 NOSIG
Conditions at: EDDR (SAARBRUECKEN , DE) observed 1420 UTC 04 June 2020
Temperature: 15.0°C (59°F)
Dewpoint: 13.0°C (55°F) [RH = 88%]
Pressure (altimeter): 29.41 inches Hg (996.0 mb)
Winds: from the WNW (290 degrees) at 6 MPH (5 knots; 2.6 m/s)
Visibility: 6 or more miles (10+ km)
Ceiling: at least 12,000 feet AGL
Clouds: few clouds at 800 feet AGL
scattered clouds at 1500 feet AGL
Weather: no significant weather observed at this time

METAR text: EDDR 041350Z 30004KT 260V040 9999 FEW012 FEW015TCU SCT030CB 14/13 Q0996 RETSRA BECMG NSW
Conditions at: EDDR (SAARBRUECKEN , DE) observed 1350 UTC 04 June 2020
Temperature: 14.0°C (57°F)
Dewpoint: 13.0°C (55°F) [RH = 94%]
Pressure (altimeter): 29.41 inches Hg (996.0 mb)
Winds: from the WNW (300 degrees) at 5 MPH (4 knots; 2.1 m/s)
Visibility: 6 or more miles (10+ km)
Ceiling: at least 12,000 feet AGL
Clouds: few clouds at 1200 feet AGL
few clouds at 1500 feet AGL
scattered clouds at 3000 feet AGL
Weather: no significant weather observed at this time

METAR text: EDDR 041320Z 30006KT 280V340 9999 -TSRA FEW012 SCT015TCU BKN030CB 13/12 Q0996 TEMPO 26020G30KT 2500 +TSRA BKN012 BKN030CB
Conditions at: EDDR (SAARBRUECKEN , DE) observed 1320 UTC 04 June 2020
Temperature: 13.0°C (55°F)
Dewpoint: 12.0°C (54°F) [RH = 94%]
Pressure (altimeter): 29.41 inches Hg (996.0 mb)
Winds: from the WNW (300 degrees) at 7 MPH (6 knots; 3.1 m/s)
Visibility: 6 or more miles (10+ km)
Ceiling: 3000 feet AGL
Clouds: few clouds at 1200 feet AGL
scattered clouds at 1500 feet AGL
broken clouds at 3000 feet AGL
Weather: -TSRA  (light rain associated with thunderstorm(s))

METAR text: EDDR 041250Z 31010KT 280V350 4000 TSRA FEW012 SCT015TCU BKN030CB 15/11 Q0996 TEMPO 26020G30KT 2500 +TSRA BKN012 BKN030CB
Conditions at: EDDR (SAARBRUECKEN , DE) observed 1250 UTC 04 June 2020
Temperature: 15.0°C (59°F)
Dewpoint: 11.0°C (52°F) [RH = 77%]
Pressure (altimeter): 29.41 inches Hg (996.0 mb)
Winds: from the NW (310 degrees) at 12 MPH (10 knots; 5.1 m/s)
Visibility: 2.49 miles (4.01 km)
Ceiling: 3000 feet AGL
Clouds: few clouds at 1200 feet AGL
scattered clouds at 1500 feet AGL
broken clouds at 3000 feet AGL
Weather: TSRA  (rain associated with thunderstorm(s))

METAR text: EDDR 041220Z 26004KT 200V310 9999 VCSH FEW012CB BKN015TCU BKN037 16/12 Q0996 TEMPO 26020G30KT TSRA BKN012 BKN030CB
Conditions at: EDDR (SAARBRUECKEN , DE) observed 1220 UTC 04 June 2020
Temperature: 16.0°C (61°F)
Dewpoint: 12.0°C (54°F) [RH = 77%]
Pressure (altimeter): 29.41 inches Hg (996.0 mb)
Winds: from the W (260 degrees) at 5 MPH (4 knots; 2.1 m/s)
Visibility: 6 or more miles (10+ km)
Ceiling: 1500 feet AGL
Clouds: few clouds at 1200 feet AGL
broken clouds at 1500 feet AGL
broken clouds at 3700 feet AGL
Weather: VCSH  (showers in vicinity)

METAR text: EDDR 041150Z 27006KT 240V320 9999 BKN015 BKN043 16/13 Q0996 NOSIG
Conditions at: EDDR (SAARBRUECKEN , DE) observed 1150 UTC 04 June 2020
Temperature: 16.0°C (61°F)
Dewpoint: 13.0°C (55°F) [RH = 82%]
Pressure (altimeter): 29.41 inches Hg (996.0 mb)
Winds: from the W (270 degrees) at 7 MPH (6 knots; 3.1 m/s)
Visibility: 6 or more miles (10+ km)
Ceiling: 1500 feet AGL
Clouds: broken clouds at 1500 feet AGL
broken clouds at 4300 feet AGL
Weather: no significant weather observed at this time

METAR text: EDDR 041120Z 29007KT 260V320 9999 FEW008 BKN012 BKN040 16/14 Q0996 NOSIG
Conditions at: EDDR (SAARBRUECKEN , DE) observed 1120 UTC 04 June 2020
Temperature: 16.0°C (61°F)
Dewpoint: 14.0°C (57°F) [RH = 88%]
Pressure (altimeter): 29.41 inches Hg (996.0 mb)
Winds: from the WNW (290 degrees) at 8 MPH (7 knots; 3.6 m/s)
Visibility: 6 or more miles (10+ km)
Ceiling: 1200 feet AGL
Clouds: few clouds at 800 feet AGL
broken clouds at 1200 feet AGL
broken clouds at 4000 feet AGL
Weather: no significant weather observed at this time

METAR text: EDDR 041050Z 28006KT 240V310 9999 FEW006 SCT010 BKN036 16/14 Q0997 NOSIG
Conditions at: EDDR (SAARBRUECKEN , DE) observed 1050 UTC 04 June 2020
Temperature: 16.0°C (61°F)
Dewpoint: 14.0°C (57°F) [RH = 88%]
Pressure (altimeter): 29.44 inches Hg (997.0 mb)
Winds: from the W (280 degrees) at 7 MPH (6 knots; 3.1 m/s)
Visibility: 6 or more miles (10+ km)
Ceiling: 3600 feet AGL
Clouds: few clouds at 600 feet AGL
scattered clouds at 1000 feet AGL
broken clouds at 3600 feet AGL
Weather: no significant weather observed at this time

METAR text: EDDR 041020Z 27006KT 9999 FEW003 SCT007 15/14 Q0997 NOSIG
Conditions at: EDDR (SAARBRUECKEN , DE) observed 1020 UTC 04 June 2020
Temperature: 15.0°C (59°F)
Dewpoint: 14.0°C (57°F) [RH = 94%]
Pressure (altimeter): 29.44 inches Hg (997.0 mb)
Winds: from the W (270 degrees) at 7 MPH (6 knots; 3.1 m/s)
Visibility: 6 or more miles (10+ km)
Ceiling: at least 12,000 feet AGL
Clouds: few clouds at 300 feet AGL
scattered clouds at 700 feet AGL
Weather: no significant weather observed at this time

METAR text: EDDR 040950Z 28003KT 250V310 9000 -SHRA FEW003 SCT006 BKN015TCU 14/13 Q0997 BECMG 28008KT
Conditions at: EDDR (SAARBRUECKEN , DE) observed 0950 UTC 04 June 2020
Temperature: 14.0°C (57°F)
Dewpoint: 13.0°C (55°F) [RH = 94%]
Pressure (altimeter): 29.44 inches Hg (997.0 mb)
Winds: from the W (280 degrees) at 3 MPH (3 knots; 1.5 m/s)
Visibility: 6 miles ( 9 km)
Ceiling: 1500 feet AGL
Clouds: few clouds at 300 feet AGL
scattered clouds at 600 feet AGL
broken clouds at 1500 feet AGL
Weather: -SHRA  (light rain showers)

METAR text: EDDR 040920Z 26006KT 9000 -SHRA FEW003 BKN006 BKN015TCU 14/13 Q0997 TEMPO 4000 TSRA SCT006
Conditions at: EDDR (SAARBRUECKEN , DE) observed 0920 UTC 04 June 2020
Temperature: 14.0°C (57°F)
Dewpoint: 13.0°C (55°F) [RH = 94%]
Pressure (altimeter): 29.44 inches Hg (997.0 mb)
Winds: from the W (260 degrees) at 7 MPH (6 knots; 3.1 m/s)
Visibility: 6 miles ( 9 km)
Ceiling: 600 feet AGL
Clouds: few clouds at 300 feet AGL
broken clouds at 600 feet AGL
broken clouds at 1500 feet AGL
Weather: -SHRA  (light rain showers)

METAR text: EDDR 040850Z 28004KT 230V310 9000 -SHRA FEW003 BKN006 BKN011TCU 14/13 Q0997 RESHRA TEMPO 4000 TSRA SCT006
Conditions at: EDDR (SAARBRUECKEN , DE) observed 0850 UTC 04 June 2020
Temperature: 14.0°C (57°F)
Dewpoint: 13.0°C (55°F) [RH = 94%]
Pressure (altimeter): 29.44 inches Hg (997.0 mb)
Winds: from the W (280 degrees) at 5 MPH (4 knots; 2.1 m/s)
Visibility: 6 miles ( 9 km)
Ceiling: 600 feet AGL
Clouds: few clouds at 300 feet AGL
broken clouds at 600 feet AGL
broken clouds at 1100 feet AGL
Weather: -SHRA  (light rain showers)

METAR text: EDDR 040820Z 23007KT 200V260 9999 -SHRA FEW006 SCT010TCU BKN032 15/13 Q0997 TEMPO 4000 SHRA BKN010 BKN020CB
Conditions at: EDDR (SAARBRUECKEN , DE) observed 0820 UTC 04 June 2020
Temperature: 15.0°C (59°F)
Dewpoint: 13.0°C (55°F) [RH = 88%]
Pressure (altimeter): 29.44 inches Hg (997.0 mb)
Winds: from the SW (230 degrees) at 8 MPH (7 knots; 3.6 m/s)
Visibility: 6 or more miles (10+ km)
Ceiling: 3200 feet AGL
Clouds: few clouds at 600 feet AGL
scattered clouds at 1000 feet AGL
broken clouds at 3200 feet AGL
Weather: -SHRA  (light rain showers)

METAR text: EDDR 040750Z 22007KT 9999 FEW006 SCT010 BKN032 15/13 Q0997 TEMPO 4000 SHRA BKN010 BKN020CB
Conditions at: EDDR (SAARBRUECKEN , DE) observed 0750 UTC 04 June 2020
Temperature: 15.0°C (59°F)
Dewpoint: 13.0°C (55°F) [RH = 88%]
Pressure (altimeter): 29.44 inches Hg (997.0 mb)
Winds: from the SW (220 degrees) at 8 MPH (7 knots; 3.6 m/s)
Visibility: 6 or more miles (10+ km)
Ceiling: 3200 feet AGL
Clouds: few clouds at 600 feet AGL
scattered clouds at 1000 feet AGL
broken clouds at 3200 feet AGL
Weather: no significant weather observed at this time

METAR text: EDDR 040720Z 23006KT 9999 FEW004 SCT008 BKN033 15/13 Q0997 TEMPO 4000 SHRA BKN008 BKN020CB
Conditions at: EDDR (SAARBRUECKEN , DE) observed 0720 UTC 04 June 2020
Temperature: 15.0°C (59°F)
Dewpoint: 13.0°C (55°F) [RH = 88%]
Pressure (altimeter): 29.44 inches Hg (997.0 mb)
Winds: from the SW (230 degrees) at 7 MPH (6 knots; 3.1 m/s)
Visibility: 6 or more miles (10+ km)
Ceiling: 3300 feet AGL
Clouds: few clouds at 400 feet AGL
scattered clouds at 800 feet AGL
broken clouds at 3300 feet AGL
Weather: no significant weather observed at this time

METAR text: EDDR 040650Z 24006KT 9999 FEW004 BKN007 BKN033 14/13 Q0997 BECMG SCT007
Conditions at: EDDR (SAARBRUECKEN , DE) observed 0650 UTC 04 June 2020
Temperature: 14.0°C (57°F)
Dewpoint: 13.0°C (55°F) [RH = 94%]
Pressure (altimeter): 29.44 inches Hg (997.0 mb)
Winds: from the WSW (240 degrees) at 7 MPH (6 knots; 3.1 m/s)
Visibility: 6 or more miles (10+ km)
Ceiling: 700 feet AGL
Clouds: few clouds at 400 feet AGL
broken clouds at 700 feet AGL
broken clouds at 3300 feet AGL
Weather: no significant weather observed at this time

METAR text: EDDR 040620Z 23007KT 9999 SCT006 15/13 Q0997 NOSIG
Conditions at: EDDR (SAARBRUECKEN , DE) observed 0620 UTC 04 June 2020
Temperature: 15.0°C (59°F)
Dewpoint: 13.0°C (55°F) [RH = 88%]
Pressure (altimeter): 29.44 inches Hg (997.0 mb)
Winds: from the SW (230 degrees) at 8 MPH (7 knots; 3.6 m/s)
Visibility: 6 or more miles (10+ km)
Ceiling: at least 12,000 feet AGL
Clouds: scattered clouds at 600 feet AGL
Weather: no significant weather observed at this time

METAR text: EDDR 040550Z 22005KT 190V250 9000 FEW005 14/13 Q0997 NOSIG
Conditions at: EDDR (SAARBRUECKEN , DE) observed 0550 UTC 04 June 2020
Temperature: 14.0°C (57°F)
Dewpoint: 13.0°C (55°F) [RH = 94%]
Pressure (altimeter): 29.44 inches Hg (997.0 mb)
Winds: from the SW (220 degrees) at 6 MPH (5 knots; 2.6 m/s)
Visibility: 6 miles ( 9 km)
Ceiling: at least 12,000 feet AGL
Clouds: few clouds at 500 feet AGL
Weather: no significant weather observed at this time

METAR text: EDDR 040520Z 15004KT 6000 FEW005 14/14 Q0997 NOSIG
Conditions at: EDDR (SAARBRUECKEN , DE) observed 0520 UTC 04 June 2020
Temperature: 14.0°C (57°F)
Dewpoint: 14.0°C (57°F) [RH = 100%]
Pressure (altimeter): 29.44 inches Hg (997.0 mb)
Winds: from the SSE (150 degrees) at 5 MPH (4 knots; 2.1 m/s)
Visibility: 4 miles ( 6 km)
Ceiling: at least 12,000 feet AGL
Clouds: few clouds at 500 feet AGL
Weather: no significant weather observed at this time

METAR text: EDDR 040450Z 17003KT 4000 -RA BR FEW005 14/13 Q0997 BECMG 6000
Conditions at: EDDR (SAARBRUECKEN , DE) observed 0450 UTC 04 June 2020
Temperature: 14.0°C (57°F)
Dewpoint: 13.0°C (55°F) [RH = 94%]
Pressure (altimeter): 29.44 inches Hg (997.0 mb)
Winds: from the S (170 degrees) at 3 MPH (3 knots; 1.5 m/s)
Visibility: 2.49 miles (4.01 km)
Ceiling: at least 12,000 feet AGL
Clouds: few clouds at 500 feet AGL
Weather: -RA BR  (light rain, mist)

METAR text: EDDR 040420Z 15003KT 5000 -RA BR FEW004 SCT040 14/13 Q0997 TEMPO 4000
Conditions at: EDDR (SAARBRUECKEN , DE) observed 0420 UTC 04 June 2020
Temperature: 14.0°C (57°F)
Dewpoint: 13.0°C (55°F) [RH = 94%]
Pressure (altimeter): 29.44 inches Hg (997.0 mb)
Winds: from the SSE (150 degrees) at 3 MPH (3 knots; 1.5 m/s)
Visibility: 3 miles ( 5 km)
Ceiling: at least 12,000 feet AGL
Clouds: few clouds at 400 feet AGL
scattered clouds at 4000 feet AGL
Weather: -RA BR  (light rain, mist)

METAR text: EDDR 040350Z 22002KT 5000 -RA FEW004 BKN007 14/13 Q0998 TEMPO 4000 SHRA BKN004 BKN040TCU
Conditions at: EDDR (SAARBRUECKEN , DE) observed 0350 UTC 04 June 2020
Temperature: 14.0°C (57°F)
Dewpoint: 13.0°C (55°F) [RH = 94%]
Pressure (altimeter): 29.47 inches Hg (998.0 mb)
Winds: from the SW (220 degrees) at 2 MPH (2 knots; 1.0 m/s)
Visibility: 3 miles ( 5 km)
Ceiling: 700 feet AGL
Clouds: few clouds at 400 feet AGL
broken clouds at 700 feet AGL
Weather: -RA  (light rain)

METAR text: EDDR 040320Z 25002KT 5000 -RA FEW004 BKN007 14/13 Q0998
Conditions at: EDDR (SAARBRUECKEN , DE) observed 0320 UTC 04 June 2020
Temperature: 14.0°C (57°F)
Dewpoint: 13.0°C (55°F) [RH = 94%]
Pressure (altimeter): 29.47 inches Hg (998.0 mb)
Winds: from the WSW (250 degrees) at 2 MPH (2 knots; 1.0 m/s)
Visibility: 3 miles ( 5 km)
Ceiling: 700 feet AGL
Clouds: few clouds at 400 feet AGL
broken clouds at 700 feet AGL
Weather: -RA  (light rain)

METAR text: EDDR 040250Z 28003KT 9000 FEW004 BKN007 14/13 Q0998
Conditions at: EDDR (SAARBRUECKEN , DE) observed 0250 UTC 04 June 2020
Temperature: 14.0°C (57°F)
Dewpoint: 13.0°C (55°F) [RH = 94%]
Pressure (altimeter): 29.47 inches Hg (998.0 mb)
Winds: from the W (280 degrees) at 3 MPH (3 knots; 1.5 m/s)
Visibility: 6 miles ( 9 km)
Ceiling: 700 feet AGL
Clouds: few clouds at 400 feet AGL
broken clouds at 700 feet AGL
Weather: no significant weather observed at this time

METAR text: EDDR 040220Z 30003KT 260V330 9000 -RA FEW003 BKN005 14/13 Q0998
Conditions at: EDDR (SAARBRUECKEN , DE) observed 0220 UTC 04 June 2020
Temperature: 14.0°C (57°F)
Dewpoint: 13.0°C (55°F) [RH = 94%]
Pressure (altimeter): 29.47 inches Hg (998.0 mb)
Winds: from the WNW (300 degrees) at 3 MPH (3 knots; 1.5 m/s)
Visibility: 6 miles ( 9 km)
Ceiling: 500 feet AGL
Clouds: few clouds at 300 feet AGL
broken clouds at 500 feet AGL
Weather: -RA  (light rain)

METAR text: EDDR 040150Z 30004KT 9999 -RA FEW005 14/13 Q0999
Conditions at: EDDR (SAARBRUECKEN , DE) observed 0150 UTC 04 June 2020
Temperature: 14.0°C (57°F)
Dewpoint: 13.0°C (55°F) [RH = 94%]
Pressure (altimeter): 29.50 inches Hg (999.0 mb)
Winds: from the WNW (300 degrees) at 5 MPH (4 knots; 2.1 m/s)
Visibility: 6 or more miles (10+ km)
Ceiling: at least 12,000 feet AGL
Clouds: few clouds at 500 feet AGL
Weather: -RA  (light rain)

METAR text: EDDR 040120Z 31004KT CAVOK 14/13 Q0999
Conditions at: EDDR (SAARBRUECKEN , DE) observed 0120 UTC 04 June 2020
Temperature: 14.0°C (57°F)
Dewpoint: 13.0°C (55°F) [RH = 94%]
Pressure (altimeter): 29.50 inches Hg (999.0 mb)
Winds: from the NW (310 degrees) at 5 MPH (4 knots; 2.1 m/s)
Visibility: 6 or more miles (10+ km)
Ceiling: ceiling and visibility are OK
Clouds: unknown
Weather: no significant weather observed at this time

METAR text: EDDR 040050Z 08003KT CAVOK 15/13 Q0999
Conditions at: EDDR (SAARBRUECKEN , DE) observed 0050 UTC 04 June 2020
Temperature: 15.0°C (59°F)
Dewpoint: 13.0°C (55°F) [RH = 88%]
Pressure (altimeter): 29.50 inches Hg (999.0 mb)
Winds: from the E (80 degrees) at 3 MPH (3 knots; 1.5 m/s)
Visibility: 6 or more miles (10+ km)
Ceiling: ceiling and visibility are OK
Clouds: unknown
Weather: no significant weather observed at this time

METAR text: EDDR 040020Z 11004KT CAVOK 15/13 Q0999
Conditions at: EDDR (SAARBRUECKEN , DE) observed 0020 UTC 04 June 2020
Temperature: 15.0°C (59°F)
Dewpoint: 13.0°C (55°F) [RH = 88%]
Pressure (altimeter): 29.50 inches Hg (999.0 mb)
Winds: from the ESE (110 degrees) at 5 MPH (4 knots; 2.1 m/s)
Visibility: 6 or more miles (10+ km)
Ceiling: ceiling and visibility are OK
Clouds: unknown
Weather: no significant weather observed at this time

METAR text: EDDR 032350Z 11004KT CAVOK 15/13 Q1000
Conditions at: EDDR (SAARBRUECKEN , DE) observed 2350 UTC 03 June 2020
Temperature: 15.0°C (59°F)
Dewpoint: 13.0°C (55°F) [RH = 88%]
Pressure (altimeter): 29.53 inches Hg (1000.0 mb)
Winds: from the ESE (110 degrees) at 5 MPH (4 knots; 2.1 m/s)
Visibility: 6 or more miles (10+ km)
Ceiling: ceiling and visibility are OK
Clouds: unknown
Weather: no significant weather observed at this time

METAR text: EDDR 032320Z 35007KT CAVOK 15/12 Q1000
Conditions at: EDDR (SAARBRUECKEN , DE) observed 2320 UTC 03 June 2020
Temperature: 15.0°C (59°F)
Dewpoint: 12.0°C (54°F) [RH = 82%]
Pressure (altimeter): 29.53 inches Hg (1000.0 mb)
Winds: from the N (350 degrees) at 8 MPH (7 knots; 3.6 m/s)
Visibility: 6 or more miles (10+ km)
Ceiling: ceiling and visibility are OK
Clouds: unknown
Weather: no significant weather observed at this time

METAR text: EDDR 032250Z 28007KT CAVOK 15/13 Q1000
Conditions at: EDDR (SAARBRUECKEN , DE) observed 2250 UTC 03 June 2020
Temperature: 15.0°C (59°F)
Dewpoint: 13.0°C (55°F) [RH = 88%]
Pressure (altimeter): 29.53 inches Hg (1000.0 mb)
Winds: from the W (280 degrees) at 8 MPH (7 knots; 3.6 m/s)
Visibility: 6 or more miles (10+ km)
Ceiling: ceiling and visibility are OK
Clouds: unknown
Weather: no significant weather observed at this time

METAR text: EDDR 032220Z 31003KT 280V350 CAVOK 15/12 Q1001
Conditions at: EDDR (SAARBRUECKEN , DE) observed 2220 UTC 03 June 2020
Temperature: 15.0°C (59°F)
Dewpoint: 12.0°C (54°F) [RH = 82%]
Pressure (altimeter): 29.56 inches Hg (1001.0 mb)
Winds: from the NW (310 degrees) at 3 MPH (3 knots; 1.5 m/s)
Visibility: 6 or more miles (10+ km)
Ceiling: ceiling and visibility are OK
Clouds: unknown
Weather: no significant weather observed at this time

METAR text: EDDR 032150Z VRB02KT CAVOK 16/12 Q1001
Conditions at: EDDR (SAARBRUECKEN , DE) observed 2150 UTC 03 June 2020
Temperature: 16.0°C (61°F)
Dewpoint: 12.0°C (54°F) [RH = 77%]
Pressure (altimeter): 29.56 inches Hg (1001.0 mb)
Winds: variable direction winds at 2 MPH (2 knots; 1.0 m/s)
Visibility: 6 or more miles (10+ km)
Ceiling: ceiling and visibility are OK
Clouds: unknown
Weather: no significant weather observed at this time

METAR text: EDDR 032120Z 33003KT 260V350 9999 -SHRA FEW026 FEW060TCU 16/13 Q1001
Conditions at: EDDR (SAARBRUECKEN , DE) observed 2120 UTC 03 June 2020
Temperature: 16.0°C (61°F)
Dewpoint: 13.0°C (55°F) [RH = 82%]
Pressure (altimeter): 29.56 inches Hg (1001.0 mb)
Winds: from the NNW (330 degrees) at 3 MPH (3 knots; 1.5 m/s)
Visibility: 6 or more miles (10+ km)
Ceiling: at least 12,000 feet AGL
Clouds: few clouds at 2600 feet AGL
few clouds at 6000 feet AGL
Weather: -SHRA  (light rain showers)

METAR text: EDDR 032050Z 08004KT CAVOK 16/12 Q1001
Conditions at: EDDR (SAARBRUECKEN , DE) observed 2050 UTC 03 June 2020
Temperature: 16.0°C (61°F)
Dewpoint: 12.0°C (54°F) [RH = 77%]
Pressure (altimeter): 29.56 inches Hg (1001.0 mb)
Winds: from the E (80 degrees) at 5 MPH (4 knots; 2.1 m/s)
Visibility: 6 or more miles (10+ km)
Ceiling: ceiling and visibility are OK
Clouds: unknown
Weather: no significant weather observed at this time

METAR text: EDDR 032020Z 09004KT CAVOK 16/12 Q1001 NOSIG
Conditions at: EDDR (SAARBRUECKEN , DE) observed 2020 UTC 03 June 2020
Temperature: 16.0°C (61°F)
Dewpoint: 12.0°C (54°F) [RH = 77%]
Pressure (altimeter): 29.56 inches Hg (1001.0 mb)
Winds: from the E (90 degrees) at 5 MPH (4 knots; 2.1 m/s)
Visibility: 6 or more miles (10+ km)
Ceiling: ceiling and visibility are OK
Clouds: unknown
Weather: no significant weather observed at this time

METAR text: EDDR 031950Z VRB02KT CAVOK 16/12 Q1002 NOSIG
Conditions at: EDDR (SAARBRUECKEN , DE) observed 1950 UTC 03 June 2020
Temperature: 16.0°C (61°F)
Dewpoint: 12.0°C (54°F) [RH = 77%]
Pressure (altimeter): 29.59 inches Hg (1002.0 mb)
Winds: variable direction winds at 2 MPH (2 knots; 1.0 m/s)
Visibility: 6 or more miles (10+ km)
Ceiling: ceiling and visibility are OK
Clouds: unknown
Weather: no significant weather observed at this time

METAR text: EDDR 031920Z VRB02KT CAVOK 16/12 Q1002 NOSIG
Conditions at: EDDR (SAARBRUECKEN , DE) observed 1920 UTC 03 June 2020
Temperature: 16.0°C (61°F)
Dewpoint: 12.0°C (54°F) [RH = 77%]
Pressure (altimeter): 29.59 inches Hg (1002.0 mb)
Winds: variable direction winds at 2 MPH (2 knots; 1.0 m/s)
Visibility: 6 or more miles (10+ km)
Ceiling: ceiling and visibility are OK
Clouds: unknown
Weather: no significant weather observed at this time

METAR text: EDDR 031850Z VRB02KT CAVOK 18/12 Q1002 NOSIG
Conditions at: EDDR (SAARBRUECKEN , DE) observed 1850 UTC 03 June 2020
Temperature: 18.0°C (64°F)
Dewpoint: 12.0°C (54°F) [RH = 68%]
Pressure (altimeter): 29.59 inches Hg (1002.0 mb)
Winds: variable direction winds at 2 MPH (2 knots; 1.0 m/s)
Visibility: 6 or more miles (10+ km)
Ceiling: ceiling and visibility are OK
Clouds: unknown
Weather: no significant weather observed at this time

METAR text: EDDR 031820Z 07003KT 030V100 CAVOK 17/12 Q1002 NOSIG
Conditions at: EDDR (SAARBRUECKEN , DE) observed 1820 UTC 03 June 2020
Temperature: 17.0°C (63°F)
Dewpoint: 12.0°C (54°F) [RH = 72%]
Pressure (altimeter): 29.59 inches Hg (1002.0 mb)
Winds: from the ENE (70 degrees) at 3 MPH (3 knots; 1.5 m/s)
Visibility: 6 or more miles (10+ km)
Ceiling: ceiling and visibility are OK
Clouds: unknown
Weather: no significant weather observed at this time

METAR text: EDDR 031750Z 02005KT 320V080 CAVOK 18/13 Q1002 NOSIG
Conditions at: EDDR (SAARBRUECKEN , DE) observed 1750 UTC 03 June 2020
Temperature: 18.0°C (64°F)
Dewpoint: 13.0°C (55°F) [RH = 73%]
Pressure (altimeter): 29.59 inches Hg (1002.0 mb)
Winds: from the NNE (20 degrees) at 6 MPH (5 knots; 2.6 m/s)
Visibility: 6 or more miles (10+ km)
Ceiling: ceiling and visibility are OK
Clouds: unknown
Weather: no significant weather observed at this time

METAR text: EDDR 031720Z 04006KT 010V070 9999 FEW016 FEW060CB 19/12 Q1002 RETS NOSIG
Conditions at: EDDR (SAARBRUECKEN , DE) observed 1720 UTC 03 June 2020
Temperature: 19.0°C (66°F)
Dewpoint: 12.0°C (54°F) [RH = 64%]
Pressure (altimeter): 29.59 inches Hg (1002.0 mb)
Winds: from the NE (40 degrees) at 7 MPH (6 knots; 3.1 m/s)
Visibility: 6 or more miles (10+ km)
Ceiling: at least 12,000 feet AGL
Clouds: few clouds at 1600 feet AGL
few clouds at 6000 feet AGL
Weather: no significant weather observed at this time

METAR text: EDDR 031650Z 36009KT 320V040 9999 -TSRA FEW010 SCT060CB 19/11 Q1002 BECMG NSW
Conditions at: EDDR (SAARBRUECKEN , DE) observed 1650 UTC 03 June 2020
Temperature: 19.0°C (66°F)
Dewpoint: 11.0°C (52°F) [RH = 60%]
Pressure (altimeter): 29.59 inches Hg (1002.0 mb)
Winds: from the N (360 degrees) at 10 MPH (9 knots; 4.6 m/s)
Visibility: 6 or more miles (10+ km)
Ceiling: at least 12,000 feet AGL
Clouds: few clouds at 1000 feet AGL
scattered clouds at 6000 feet AGL
Weather: -TSRA  (light rain associated with thunderstorm(s))

METAR text: EDDR 031620Z 34009G20KT 260V030 9999 -TSRA FEW010 SCT060CB 20/10 Q1003 BECMG NSW
Conditions at: EDDR (SAARBRUECKEN , DE) observed 1620 UTC 03 June 2020
Temperature: 20.0°C (68°F)
Dewpoint: 10.0°C (50°F) [RH = 53%]
Pressure (altimeter): 29.62 inches Hg (1003.0 mb)
Winds: from the NNW (340 degrees) at 10 MPH (9 knots; 4.6 m/s)
gusting to 23 MPH (20 knots; 10.3 m/s)
Visibility: 6 or more miles (10+ km)
Ceiling: at least 12,000 feet AGL
Clouds: few clouds at 1000 feet AGL
scattered clouds at 6000 feet AGL
Weather: -TSRA  (light rain associated with thunderstorm(s))

METAR text: EDDR 031550Z 24011KT 9999 -TSRA FEW010 SCT060CB 21/10 Q1002 TEMPO TSRA
Conditions at: EDDR (SAARBRUECKEN , DE) observed 1550 UTC 03 June 2020
Temperature: 21.0°C (70°F)
Dewpoint: 10.0°C (50°F) [RH = 49%]
Pressure (altimeter): 29.59 inches Hg (1002.0 mb)
Winds: from the WSW (240 degrees) at 13 MPH (11 knots; 5.7 m/s)
Visibility: 6 or more miles (10+ km)
Ceiling: at least 12,000 feet AGL
Clouds: few clouds at 1000 feet AGL
scattered clouds at 6000 feet AGL
Weather: -TSRA  (light rain associated with thunderstorm(s))

METAR text: EDDR 031520Z 21008KT 9999 SCT060CB 23/07 Q1002 TEMPO TSRA
Conditions at: EDDR (SAARBRUECKEN , DE) observed 1520 UTC 03 June 2020
Temperature: 23.0°C (73°F)
Dewpoint: 7.0°C (45°F) [RH = 36%]
Pressure (altimeter): 29.59 inches Hg (1002.0 mb)
Winds: from the SSW (210 degrees) at 9 MPH (8 knots; 4.1 m/s)
Visibility: 6 or more miles (10+ km)
Ceiling: at least 12,000 feet AGL
Clouds: scattered clouds at 6000 feet AGL
Weather: no significant weather observed at this time

METAR text: EDDR 031450Z 32003KT 270V350 9999 FEW060CB 24/10 Q1002 TEMPO SHRA
Conditions at: EDDR (SAARBRUECKEN , DE) observed 1450 UTC 03 June 2020
Temperature: 24.0°C (75°F)
Dewpoint: 10.0°C (50°F) [RH = 41%]
Pressure (altimeter): 29.59 inches Hg (1002.0 mb)
Winds: from the NW (320 degrees) at 3 MPH (3 knots; 1.5 m/s)
Visibility: 6 or more miles (10+ km)
Ceiling: at least 12,000 feet AGL
Clouds: few clouds at 6000 feet AGL
Weather: no significant weather observed at this time

METAR text: EDDR 031420Z 30006KT 240V350 9999 FEW060TCU 25/09 Q1003 NOSIG
Conditions at: EDDR (SAARBRUECKEN , DE) observed 1420 UTC 03 June 2020
Temperature: 25.0°C (77°F)
Dewpoint: 9.0°C (48°F) [RH = 36%]
Pressure (altimeter): 29.62 inches Hg (1003.0 mb)
Winds: from the WNW (300 degrees) at 7 MPH (6 knots; 3.1 m/s)
Visibility: 6 or more miles (10+ km)
Ceiling: at least 12,000 feet AGL
Clouds: few clouds at 6000 feet AGL
Weather: no significant weather observed at this time

Forecast for: EDDR (SAARBRUECKEN , DE)
Text: TAF EDDR 042300Z 0500/0524 26005KT 9999 FEW015
Forecast period: 0000 to 0700 UTC 05 June 2020
Forecast type: FROM: standard forecast or significant change
Winds: from the W (260 degrees) at 6 MPH (5 knots; 2.6 m/s)
Visibility: 6 or more miles 10+ km)
Ceiling: at least 12,000 feet AGL
Clouds: few clouds at 1500 feet AGL
Weather: no significant weather forecast for this period
Text: TEMPO 0505/0509 BKN012
Forecast period: 0500 to 0900 UTC 05 June 2020
Forecast type: TEMPORARY: The following changes expected for less than half the time period
Visibility: missing
Ceiling: 1200 feet AGL
Clouds: broken clouds at 1200 feet AGL
Weather: no significant weather forecast for this period
Text: BECMG 0507/0509 24010KT
Forecast period: 0700 to 1000 UTC 05 June 2020
Forecast type: BECOMING: Conditions expected to become as follows by 0900 UTC 05 June 2020
Winds: from the WSW (240 degrees) at 12 MPH (10 knots; 5.1 m/s)
Visibility: 6 or more miles 10+ km)
Ceiling: at least 12,000 feet AGL
Clouds: few clouds at 1500 feet AGL
Weather: no significant weather forecast for this period
Text: BECMG 0510/0512 24015G30KT
Forecast period: 1000 to 1800 UTC 05 June 2020
Forecast type: BECOMING: Conditions expected to become as follows by 1200 UTC 05 June 2020
Winds: from the WSW (240 degrees) at 17 MPH (15 knots; 7.7 m/s)
gusting to 34 MPH (30 knots; 15.4 m/s)
Visibility: 6 or more miles 10+ km)
Ceiling: at least 12,000 feet AGL
Clouds: few clouds at 1500 feet AGL
Weather: no significant weather forecast for this period
Text: TEMPO 0512/0519 SHRA BKN020CB
Forecast period: 1200 to 1900 UTC 05 June 2020
Forecast type: TEMPORARY: The following changes expected for less than half the time period
Visibility: missing
Ceiling: 2000 feet AGL
Clouds: broken clouds at 2000 feet AGL
Weather: SHRA  (rain showers)
Text: PROB30
Forecast period: 1500 to 1900 UTC 05 June 2020
Forecast type: TEMPORARY: The following changes expected for less than half the time period
Winds: from the W (260 degrees) at 23 MPH (20 knots; 10.3 m/s)
gusting to 40 MPH (35 knots; 18.0 m/s)
Visibility: 1.86 miles (2.99 km)
Ceiling: 1200 feet AGL
Clouds: broken clouds at 1200 feet AGL
broken clouds at 2000 feet AGL
Weather: TSRA  (rain associated with thunderstorm(s))
Text: TEMPO 0515/0519 26020G35KT 3000 TSRA BKN012 BKN020CB
Forecast period: 1800 UTC 05 June 2020 to 0000 UTC 06 June 2020
Forecast type: BECOMING: Conditions expected to become as follows by 2000 UTC 05 June 2020
Winds: from the WSW (240 degrees) at 9 MPH (8 knots; 4.1 m/s)
Visibility: 6 or more miles 10+ km)
Ceiling: at least 12,000 feet AGL
Clouds: few clouds at 1500 feet AGL
Weather: no significant weather forecast for this period